Farmingville, New York
Current Conditions -  °F | °C
As of 11:56 AM on Thursday 23 Oct 2014 (Local Time) from KISP Reporting Station
Light Rain Light Rain  
Wind Chill: 54°   Ceiling: 2200
Heat Index: 54°   Visibility: 7mi
Dew Point: 48°   Wind: 17mph
Humidity: 80%   Direction: 360°N
Pressure: 29.64"   Gusts: 26mph
Location:  40.83°N, 73.04°W
Report Text: KISP 231556Z 36015G23KT 7SM -RA OVC022 12/09 A2964 RMK AO2 RAB39 SLP036 P0000 T01220089
Loading
Personal Weather Stations






























Interactive Weather Map
Tropical Storm Tracking
New forecast layout! Learn more

10-Day Weather Forecast

Advertisements
Track Severe Weather on mobile